Sinton's Hourly Summary for Friday, January 14, 2022
Hour Temp
(f)
RH
(%)
Solar Rad.
(MJ/m2)
Rainfall
(in)
Wind
(mph)
Battery
(volts)
1/14/2022 12:00 AM 44 77 0 0 5.33 0
1/14/2022 1:00 AM 45 83 0 0 3.76 0
1/14/2022 2:00 AM 44 88 0 0 4.02 0
1/14/2022 3:00 AM 45 0 0 0 4.03 0
1/14/2022 4:00 AM 44 0 0 0 3.47 0
1/14/2022 5:00 AM 46 0 0 0 2.35 0
1/14/2022 6:00 AM 50 0 0 0 6.18 0
1/14/2022 7:00 AM 51 0 0.01 0 5.95 0
1/14/2022 8:00 AM 53 0 0.07 0 5.52 0
1/14/2022 9:00 AM 55 0 0.26 0 7.46 0
1/14/2022 10:00 AM 60 79 0.46 0 7.16 0
1/14/2022 11:00 AM 69 59 0.54 0 7.38 0
1/14/2022 12:00 PM 74 42 0.57 0 8.66 0
1/14/2022 1:00 PM 75 34 0.53 0 7.63 0
1/14/2022 2:00 PM 76 29 0.45 0 9.33 0
1/14/2022 3:00 PM 74 36 0.34 0 10.25 0
1/14/2022 4:00 PM 72 40 0.18 0 11.43 0
1/14/2022 5:00 PM 67 57 0.02 0 10.62 0
1/14/2022 6:00 PM 63 74 0 0 9.73 0
1/14/2022 7:00 PM 61 80 0 0 6.94 0
1/14/2022 8:00 PM 61 82 0 0 7.04 0
1/14/2022 9:00 PM 64 82 0 0 11.93 0
1/14/2022 10:00 PM 63 85 0 0 9.55 0
1/14/2022 11:00 PM 60 88 0 0 6.11 0
Data Summary 59 46 3.43 0.00 7.16 0.00